createdAt,value
2018-02-16T00:02:28.712Z,4.33
2018-02-16T00:04:57.858Z,4.40
2018-02-16T00:07:27.014Z,4.33
2018-02-16T00:09:56.154Z,4.43
2018-02-16T00:12:25.295Z,4.35
2018-02-16T00:14:54.432Z,4.30
2018-02-16T00:17:23.631Z,4.30
2018-02-16T00:19:52.762Z,4.28
2018-02-16T00:22:21.911Z,4.26
2018-02-16T00:24:51.031Z,4.25
2018-02-16T00:27:20.219Z,4.22
2018-02-16T00:29:49.362Z,4.21
2018-02-16T00:32:18.478Z,4.19
2018-02-16T00:34:47.634Z,4.16
2018-02-16T00:37:16.867Z,4.28
2018-02-16T00:39:46.040Z,4.22
2018-02-16T00:42:15.202Z,4.29
2018-02-16T00:47:19.581Z,4.25
2018-02-16T00:49:48.731Z,4.17
2018-02-16T00:52:17.903Z,4.15
2018-02-16T00:54:47.064Z,4.25
2018-02-16T00:57:16.201Z,4.11
2018-02-16T00:59:45.391Z,4.22
2018-02-16T01:02:14.618Z,4.16
2018-02-16T01:04:43.779Z,4.27
2018-02-16T01:07:12.926Z,4.19
2018-02-16T01:09:42.089Z,4.18
2018-02-16T01:12:11.202Z,4.24
2018-02-16T01:14:40.351Z,4.31
2018-02-16T01:17:09.533Z,4.50
2018-02-16T01:19:38.681Z,4.58
2018-02-16T01:22:07.808Z,4.60
2018-02-16T01:24:36.948Z,4.63
2018-02-16T01:27:06.091Z,4.66
2018-02-16T01:29:35.242Z,4.84
2018-02-16T01:32:04.362Z,4.91
2018-02-16T01:34:37.956Z,4.91
2018-02-16T01:37:07.109Z,5.06
2018-02-16T01:39:36.260Z,5.09
2018-02-16T01:42:05.387Z,5.11
2018-02-16T01:44:34.612Z,5.19
2018-02-16T01:47:03.782Z,5.23
2018-02-16T01:49:45.735Z,5.24
2018-02-16T01:52:14.882Z,5.17
2018-02-16T01:54:44.038Z,5.15
2018-02-16T01:57:13.193Z,5.12
2018-02-16T01:59:42.342Z,5.21
2018-02-16T02:02:11.457Z,5.26
2018-02-16T02:04:40.607Z,5.35
2018-02-16T02:07:09.777Z,5.32
2018-02-16T02:09:38.923Z,5.26
2018-02-16T02:12:07.634Z,5.20
2018-02-16T02:14:36.248Z,5.09
2018-02-16T02:17:04.905Z,5.01
2018-02-16T02:19:33.575Z,4.98
2018-02-16T02:22:02.169Z,4.91
2018-02-16T02:24:30.847Z,4.91
2018-02-16T02:26:59.470Z,4.92
2018-02-16T02:29:28.133Z,4.93
2018-02-16T02:31:56.746Z,4.91
2018-02-16T02:34:25.342Z,4.80
2018-02-16T02:36:53.956Z,4.79
2018-02-16T02:39:22.577Z,4.72
2018-02-16T02:41:51.294Z,4.69
2018-02-16T02:44:19.881Z,4.59
2018-02-16T02:46:48.489Z,4.56
2018-02-16T02:49:17.133Z,4.53
2018-02-16T02:51:45.728Z,4.54
2018-02-16T02:54:14.351Z,4.61
2018-02-16T02:56:42.966Z,4.62
2018-02-16T02:59:11.612Z,4.56
2018-02-16T03:01:40.238Z,4.53
2018-02-16T03:04:08.880Z,4.55
2018-02-16T03:06:37.501Z,4.57
2018-02-16T03:09:06.158Z,4.55
2018-02-16T03:11:34.784Z,4.60
2018-02-16T03:14:03.492Z,4.54
2018-02-16T03:16:32.114Z,4.54
2018-02-16T03:19:00.764Z,4.52
2018-02-16T03:21:30.282Z,4.50
2018-02-16T03:23:58.900Z,4.49
2018-02-16T03:26:27.512Z,4.43
2018-02-16T03:28:56.173Z,4.44
2018-02-16T03:31:24.763Z,4.37
2018-02-16T03:33:53.437Z,4.33
2018-02-16T03:36:22.049Z,4.35
2018-02-16T03:38:50.809Z,4.36
2018-02-16T03:41:19.420Z,4.34
2018-02-16T03:43:48.009Z,4.33
2018-02-16T03:46:16.624Z,4.32
2018-02-16T03:48:45.904Z,4.33
2018-02-16T03:51:14.546Z,4.35
2018-02-16T03:53:43.165Z,4.29
2018-02-16T03:56:12.862Z,4.26
2018-02-16T03:58:41.477Z,4.19
2018-02-16T04:01:10.209Z,4.18
2018-02-16T04:03:38.838Z,4.18
2018-02-16T04:06:07.457Z,4.15
2018-02-16T04:08:36.073Z,4.09
2018-02-16T04:11:04.902Z,4.08
2018-02-16T04:13:33.609Z,4.16
2018-02-16T04:16:02.200Z,4.13
2018-02-16T04:18:30.932Z,4.11
2018-02-16T04:20:59.545Z,4.09
2018-02-16T04:23:28.162Z,4.06
2018-02-16T04:25:56.778Z,4.04
2018-02-16T04:28:25.390Z,4.05
2018-02-16T04:30:54.053Z,4.01
2018-02-16T04:33:23.683Z,3.97
2018-02-16T04:35:52.305Z,3.97
2018-02-16T04:38:21.097Z,3.95
2018-02-16T04:40:49.718Z,3.95
2018-02-16T04:43:18.373Z,3.93
2018-02-16T04:45:46.992Z,3.89
2018-02-16T04:48:15.656Z,3.95
2018-02-16T04:50:44.253Z,3.86
2018-02-16T04:53:12.947Z,3.83
2018-02-16T04:55:41.583Z,3.85
2018-02-16T04:58:10.224Z,3.83
2018-02-16T05:00:38.858Z,3.85
2018-02-16T05:03:07.473Z,3.85
2018-02-16T05:05:37.069Z,3.80
2018-02-16T05:08:05.736Z,3.83
2018-02-16T05:10:34.361Z,3.89
2018-02-16T05:13:02.953Z,3.94
2018-02-16T05:15:31.569Z,3.93
2018-02-16T05:18:00.185Z,3.93
2018-02-16T05:20:28.779Z,3.87
2018-02-16T05:22:57.422Z,3.75
2018-02-16T05:25:26.053Z,3.77
2018-02-16T05:27:54.669Z,3.85
2018-02-16T05:30:23.345Z,3.85
2018-02-16T05:32:51.994Z,3.81
2018-02-16T05:35:20.592Z,3.87
2018-02-16T05:37:49.208Z,3.86
2018-02-16T05:40:17.871Z,3.80
2018-02-16T05:42:46.466Z,3.79
2018-02-16T05:45:15.085Z,3.85
2018-02-16T05:47:43.729Z,3.89
2018-02-16T05:50:12.350Z,3.90
2018-02-16T05:52:41.008Z,3.84
2018-02-16T05:55:09.622Z,3.83
2018-02-16T05:57:38.229Z,3.82
2018-02-16T06:00:06.867Z,3.74
2018-02-16T06:02:36.417Z,3.79
2018-02-16T06:05:05.038Z,3.77
2018-02-16T06:07:33.711Z,3.79
2018-02-16T06:10:02.396Z,3.79
2018-02-16T06:12:30.987Z,3.77
2018-02-16T06:14:59.797Z,3.78
2018-02-16T06:17:28.412Z,3.75
2018-02-16T06:19:57.053Z,3.70
2018-02-16T06:22:25.669Z,3.72
2018-02-16T06:24:54.262Z,3.73
2018-02-16T06:27:22.886Z,3.76
2018-02-16T06:29:51.500Z,3.77
2018-02-16T06:32:20.121Z,3.79
2018-02-16T06:34:48.885Z,3.79
2018-02-16T06:37:17.479Z,3.70
2018-02-16T06:39:46.089Z,3.49
2018-02-16T06:42:14.681Z,3.46
2018-02-16T06:44:43.301Z,3.53
2018-02-16T06:47:11.950Z,3.57
2018-02-16T06:49:40.630Z,3.59
2018-02-16T06:52:09.281Z,3.70
2018-02-16T06:54:37.905Z,3.73
2018-02-16T06:57:06.558Z,3.70
2018-02-16T06:59:35.189Z,3.76
2018-02-16T07:02:03.833Z,3.84
2018-02-16T07:04:32.477Z,3.83
2018-02-16T07:07:01.129Z,3.78
2018-02-16T07:09:29.760Z,3.85
2018-02-16T07:11:58.357Z,3.89
2018-02-16T07:14:26.977Z,3.92
2018-02-16T07:16:55.657Z,3.92
2018-02-16T07:19:24.302Z,3.94
2018-02-16T07:21:52.918Z,4.03
2018-02-16T07:24:21.603Z,4.10
2018-02-16T07:26:50.993Z,4.16
2018-02-16T07:29:19.630Z,4.30
2018-02-16T07:31:48.258Z,4.38
2018-02-16T07:34:16.902Z,4.52
2018-02-16T07:36:46.524Z,4.60
2018-02-16T07:39:15.301Z,4.69
2018-02-16T07:41:43.897Z,4.68
2018-02-16T07:44:12.554Z,4.66
2018-02-16T07:46:41.178Z,4.61
2018-02-16T07:49:09.822Z,4.63
2018-02-16T07:51:38.438Z,4.72
2018-02-16T07:54:07.076Z,4.80
2018-02-16T07:56:35.689Z,4.89
2018-02-16T07:59:04.385Z,4.96
2018-02-16T08:01:32.997Z,4.94
2018-02-16T08:04:01.633Z,4.97
2018-02-16T08:06:30.395Z,4.85
2018-02-16T08:08:59.031Z,4.83
2018-02-16T08:11:27.838Z,4.76
2018-02-16T08:13:57.261Z,4.66
2018-02-16T08:16:25.961Z,4.74
2018-02-16T08:18:54.576Z,4.69
2018-02-16T08:21:23.186Z,4.62
2018-02-16T08:23:56.116Z,4.71
2018-02-16T08:26:25.218Z,4.83
2018-02-16T08:28:53.920Z,4.81
2018-02-16T08:31:22.550Z,4.84
2018-02-16T08:33:51.746Z,4.92
2018-02-16T08:36:20.460Z,4.97
2018-02-16T08:38:49.257Z,4.96
2018-02-16T08:41:17.943Z,4.82
2018-02-16T08:43:46.762Z,5.01
2018-02-16T08:46:15.788Z,5.06
2018-02-16T08:48:44.768Z,5.03
2018-02-16T08:51:13.782Z,4.96
2018-02-16T08:53:42.477Z,4.96
2018-02-16T08:56:11.110Z,5.03
2018-02-16T08:58:39.700Z,5.18
2018-02-16T09:01:08.402Z,5.11
2018-02-16T09:03:36.994Z,5.19
2018-02-16T09:06:19.418Z,5.18
2018-02-16T09:08:48.897Z,4.97
2018-02-16T09:11:17.562Z,5.07
2018-02-16T09:13:46.175Z,5.22
2018-02-16T09:16:14.767Z,5.30
2018-02-16T09:18:43.377Z,5.43
2018-02-16T09:21:17.409Z,5.47
2018-02-16T09:23:46.638Z,5.49
2018-02-16T09:26:15.385Z,5.49
2018-02-16T09:28:44.018Z,5.56
2018-02-16T09:31:12.638Z,5.58
2018-02-16T09:33:42.021Z,5.49
2018-02-16T09:36:11.787Z,5.47
2018-02-16T09:38:40.401Z,5.57
2018-02-16T09:41:09.038Z,5.39
2018-02-16T09:43:37.639Z,5.34
2018-02-16T09:46:06.236Z,5.19
2018-02-16T09:48:34.917Z,5.41
2018-02-16T09:51:03.573Z,5.37
2018-02-16T09:53:32.173Z,5.53
2018-02-16T09:56:00.793Z,5.49
2018-02-16T09:58:29.460Z,5.51
2018-02-16T10:00:58.138Z,5.61
2018-02-16T10:03:27.418Z,5.51
2018-02-16T10:05:56.019Z,5.30
2018-02-16T10:08:24.663Z,5.31
2018-02-16T10:10:53.290Z,5.29
2018-02-16T10:13:21.891Z,5.22
2018-02-16T10:15:50.501Z,5.44
2018-02-16T10:18:19.098Z,5.45
2018-02-16T10:20:48.758Z,5.58
2018-02-16T10:23:17.829Z,5.64
2018-02-16T10:25:46.441Z,5.64
2018-02-16T10:28:19.048Z,5.87
2018-02-16T10:30:52.564Z,6.25
2018-02-16T10:33:26.290Z,6.38
2018-02-16T10:35:54.899Z,6.44
2018-02-16T10:38:24.638Z,6.23
2018-02-16T10:40:53.289Z,6.43
2018-02-16T10:43:23.442Z,6.38
2018-02-16T10:45:52.046Z,6.61
2018-02-16T10:48:20.824Z,6.65
2018-02-16T10:50:49.505Z,6.63
2018-02-16T10:53:18.135Z,6.21
2018-02-16T10:55:46.730Z,6.36
2018-02-16T10:58:16.889Z,6.34
2018-02-16T11:00:56.815Z,6.68
2018-02-16T11:03:31.222Z,6.61
2018-02-16T11:06:00.374Z,6.23
2018-02-16T11:08:34.762Z,6.11
2018-02-16T11:11:03.442Z,6.21
2018-02-16T11:13:32.097Z,6.21
2018-02-16T11:16:00.697Z,5.86
2018-02-16T11:18:29.346Z,5.37
2018-02-16T11:20:57.978Z,5.19
2018-02-16T11:23:26.622Z,4.87
2018-02-16T11:25:55.218Z,5.01
2018-02-16T11:28:24.743Z,5.10
2018-02-16T11:30:56.386Z,5.05
2018-02-16T11:33:25.011Z,4.98
2018-02-16T11:35:54.558Z,4.83
2018-02-16T11:38:24.835Z,4.85
2018-02-16T11:40:53.498Z,4.98
2018-02-16T11:43:23.932Z,4.92
2018-02-16T11:45:52.538Z,4.97
2018-02-16T11:48:23.981Z,5.03
2018-02-16T11:50:52.595Z,5.10
2018-02-16T11:53:21.973Z,5.12
2018-02-16T11:55:50.632Z,4.97
2018-02-16T11:58:19.305Z,4.86
2018-02-16T12:00:47.946Z,4.95
2018-02-16T12:03:16.628Z,4.72
2018-02-16T12:05:57.496Z,4.66
2018-02-16T12:08:26.931Z,4.67
2018-02-16T12:10:55.657Z,4.62
2018-02-16T12:13:24.262Z,4.68
2018-02-16T12:15:52.866Z,4.89
2018-02-16T12:18:21.490Z,4.96
2018-02-16T12:20:50.143Z,4.88
2018-02-16T12:23:18.784Z,5.21
2018-02-16T12:25:47.394Z,5.40
2018-02-16T12:28:16.008Z,5.63
2018-02-16T12:30:44.645Z,5.75
2018-02-16T12:33:13.262Z,5.90
2018-02-16T12:35:41.861Z,5.94
2018-02-16T12:38:10.528Z,5.75
2018-02-16T12:40:39.137Z,5.66
2018-02-16T12:43:07.750Z,5.62
2018-02-16T12:45:36.358Z,5.62
2018-02-16T12:48:04.989Z,5.65
2018-02-16T12:50:33.669Z,5.77
2018-02-16T12:53:02.309Z,5.81
2018-02-16T12:55:30.926Z,5.77
2018-02-16T12:57:59.555Z,5.75
2018-02-16T13:00:28.672Z,5.61
2018-02-16T13:02:57.394Z,5.71
2018-02-16T13:05:26.002Z,5.90
2018-02-16T13:07:54.616Z,5.70
2018-02-16T13:10:23.253Z,5.68
2018-02-16T13:12:51.871Z,5.60
2018-02-16T13:15:20.489Z,5.54
2018-02-16T13:17:49.106Z,5.65
2018-02-16T13:20:17.746Z,5.68
2018-02-16T13:22:46.407Z,5.73
2018-02-16T13:25:15.003Z,5.66
2018-02-16T13:27:43.620Z,5.77
2018-02-16T13:30:18.288Z,5.72
2018-02-16T13:32:46.932Z,5.63
2018-02-16T13:35:15.692Z,5.57
2018-02-16T13:37:44.305Z,5.50
2018-02-16T13:40:12.958Z,5.44
2018-02-16T13:42:41.566Z,5.42
2018-02-16T13:45:10.180Z,5.33
2018-02-16T13:47:38.836Z,5.35
2018-02-16T13:50:07.473Z,5.36
2018-02-16T13:52:36.077Z,5.32
2018-02-16T13:55:04.736Z,5.25
2018-02-16T13:57:33.346Z,4.99
2018-02-16T14:00:01.969Z,4.89
2018-02-16T14:02:30.603Z,4.86
2018-02-16T14:05:09.131Z,4.89
2018-02-16T14:07:37.738Z,4.94
2018-02-16T14:10:06.366Z,4.88
2018-02-16T14:12:34.982Z,4.77
2018-02-16T14:15:04.593Z,4.73
2018-02-16T14:17:33.217Z,4.91
2018-02-16T14:20:01.838Z,4.95
2018-02-16T14:22:30.469Z,4.96
2018-02-16T14:24:59.092Z,5.00
2018-02-16T14:27:27.710Z,5.09
2018-02-16T14:29:56.322Z,5.05
2018-02-16T14:32:24.942Z,5.09
2018-02-16T14:34:54.192Z,5.19
2018-02-16T14:37:22.825Z,5.20
2018-02-16T14:39:52.776Z,5.18
2018-02-16T14:42:21.472Z,5.26
2018-02-16T14:44:50.739Z,5.29
2018-02-16T14:47:19.445Z,5.32
2018-02-16T14:49:48.196Z,5.25
2018-02-16T14:52:16.807Z,5.19
2018-02-16T14:54:49.653Z,5.09
2018-02-16T14:57:22.177Z,5.08
2018-02-16T14:59:55.443Z,5.04
2018-02-16T15:02:27.825Z,4.92
2018-02-16T15:04:57.913Z,4.87
2018-02-16T15:07:26.529Z,4.89
2018-02-16T15:09:55.180Z,4.93
2018-02-16T15:12:24.159Z,4.93
2018-02-16T15:14:52.781Z,5.06
2018-02-16T15:17:22.876Z,5.15
2018-02-16T15:19:51.529Z,5.31
2018-02-16T15:22:20.360Z,5.43
2018-02-16T15:24:49.130Z,5.43
2018-02-16T15:27:17.755Z,5.49
2018-02-16T15:29:47.037Z,5.47
2018-02-16T15:32:15.714Z,5.28
2018-02-16T15:34:44.393Z,5.18
2018-02-16T15:37:12.982Z,5.15
2018-02-16T15:39:41.601Z,5.03
2018-02-16T15:42:10.252Z,4.96
2018-02-16T15:44:38.867Z,4.93
2018-02-16T15:47:07.493Z,4.86
2018-02-16T15:49:36.106Z,4.84
2018-02-16T15:52:04.737Z,4.84
2018-02-16T15:54:33.344Z,4.86
2018-02-16T15:57:01.986Z,4.82
2018-02-16T15:59:30.674Z,4.82
2018-02-16T16:01:59.290Z,4.79
2018-02-16T16:04:27.910Z,4.79
2018-02-16T16:06:56.526Z,4.77
2018-02-16T16:09:25.932Z,4.78
2018-02-16T16:12:00.861Z,4.74
2018-02-16T16:14:29.480Z,4.72
2018-02-16T16:16:58.093Z,4.61
2018-02-16T16:19:26.699Z,4.49
2018-02-16T16:21:55.336Z,4.34
2018-02-16T16:24:24.445Z,4.35
2018-02-16T16:26:53.058Z,4.29
2018-02-16T16:29:23.043Z,4.18
2018-02-16T16:31:51.689Z,4.05
2018-02-16T16:34:20.612Z,4.03
2018-02-16T16:36:49.307Z,4.06
2018-02-16T16:39:17.943Z,4.05
2018-02-16T16:41:46.588Z,3.96
2018-02-16T16:44:15.208Z,3.89
2018-02-16T16:46:43.826Z,3.81
2018-02-16T16:49:12.453Z,3.71
2018-02-16T16:51:41.078Z,3.60
2018-02-16T16:54:09.696Z,3.56
2018-02-16T16:56:38.326Z,3.53
2018-02-16T16:59:06.944Z,3.53
2018-02-16T17:01:35.557Z,3.53
2018-02-16T17:04:04.198Z,3.48
2018-02-16T17:06:32.829Z,3.42
2018-02-16T17:09:01.474Z,3.32
2018-02-16T17:11:30.121Z,3.31
2018-02-16T17:13:58.759Z,3.34
2018-02-16T17:16:27.362Z,3.39
2018-02-16T17:18:56.026Z,3.46
2018-02-16T17:21:24.638Z,3.52
2018-02-16T17:23:53.266Z,3.54
2018-02-16T17:26:21.916Z,3.55
2018-02-16T17:28:50.643Z,3.52
2018-02-16T17:31:19.547Z,3.53
2018-02-16T17:33:48.170Z,3.48
2018-02-16T17:36:18.231Z,3.47
2018-02-16T17:38:46.898Z,3.49
2018-02-16T17:41:15.559Z,3.53
2018-02-16T17:43:44.192Z,3.54
2018-02-16T17:46:12.854Z,3.56
2018-02-16T17:48:41.461Z,3.50
2018-02-16T17:51:10.074Z,3.46
2018-02-16T17:53:38.689Z,3.42
2018-02-16T17:56:07.347Z,3.41
2018-02-16T17:58:35.969Z,3.34
2018-02-16T18:01:04.633Z,3.26
2018-02-16T18:03:33.255Z,3.11
2018-02-16T18:06:01.886Z,3.00
2018-02-16T18:08:30.516Z,2.86
2018-02-16T18:10:59.194Z,2.76
2018-02-16T18:13:29.016Z,2.67
2018-02-16T18:15:57.618Z,2.67
2018-02-16T18:18:35.405Z,2.68
2018-02-16T18:21:04.029Z,2.64
2018-02-16T18:23:32.687Z,2.64
2018-02-16T18:26:01.276Z,2.67
2018-02-16T18:28:31.054Z,2.68
2018-02-16T18:30:59.670Z,2.66
2018-02-16T18:33:29.621Z,2.67
2018-02-16T18:35:58.213Z,2.69
2018-02-16T18:38:28.311Z,2.69
2018-02-16T18:40:56.917Z,2.69
2018-02-16T18:43:25.814Z,2.63
2018-02-16T18:45:54.537Z,2.61
2018-02-16T18:48:23.191Z,2.61
2018-02-16T18:50:51.987Z,2.63
2018-02-16T18:53:21.216Z,2.51
2018-02-16T18:55:49.880Z,2.41
2018-02-16T18:58:18.650Z,2.33
2018-02-16T19:00:47.509Z,2.28
2018-02-16T19:03:16.134Z,2.25
2018-02-16T19:05:44.733Z,2.23
2018-02-16T19:08:13.345Z,2.17
2018-02-16T19:10:41.995Z,2.17
2018-02-16T19:13:11.648Z,2.23
2018-02-16T19:15:41.095Z,2.20
2018-02-16T19:18:09.812Z,2.14
2018-02-16T19:20:38.711Z,2.16
2018-02-16T19:23:07.365Z,2.15
2018-02-16T19:25:36.345Z,2.13
2018-02-16T19:28:04.993Z,2.11
2018-02-16T19:30:33.619Z,2.06
2018-02-16T19:33:02.262Z,2.00
2018-02-16T19:35:30.936Z,1.90
2018-02-16T19:37:59.972Z,1.86
2018-02-16T19:40:28.607Z,1.80
2018-02-16T19:43:01.647Z,1.74
2018-02-16T19:45:30.261Z,1.70
2018-02-16T19:47:59.974Z,1.66
2018-02-16T19:50:28.623Z,1.69
2018-02-16T19:52:58.295Z,1.68
2018-02-16T19:55:26.914Z,1.66
2018-02-16T19:57:55.756Z,1.65
2018-02-16T20:00:24.381Z,1.60
2018-02-16T20:02:53.033Z,1.51
2018-02-16T20:05:21.758Z,1.57
2018-02-16T20:07:50.378Z,1.65
2018-02-16T20:10:19.289Z,1.65
2018-02-16T20:12:47.937Z,1.59
2018-02-16T20:15:16.604Z,1.52
2018-02-16T20:17:45.294Z,1.51
2018-02-16T20:20:13.967Z,1.47
2018-02-16T20:22:42.588Z,1.38
2018-02-16T20:25:13.174Z,1.28
2018-02-16T20:27:41.802Z,1.26
2018-02-16T20:30:10.494Z,1.24
2018-02-16T20:32:39.116Z,1.20
2018-02-16T20:35:07.709Z,1.26
2018-02-16T20:37:36.604Z,1.23
2018-02-16T20:40:05.302Z,1.20
2018-02-16T20:42:33.934Z,1.15
2018-02-16T20:45:02.590Z,1.08
2018-02-16T20:47:31.212Z,1.04
2018-02-16T20:50:00.130Z,1.02
2018-02-16T20:52:28.747Z,1.01
2018-02-16T20:54:58.358Z,0.97
2018-02-16T20:57:26.994Z,0.95
2018-02-16T20:59:55.733Z,0.88
2018-02-16T21:02:24.418Z,0.86
2018-02-16T21:04:53.034Z,0.84
2018-02-16T21:07:22.104Z,0.86
2018-02-16T21:09:50.767Z,0.89
2018-02-16T21:12:19.448Z,0.90
2018-02-16T21:14:48.102Z,0.87
2018-02-16T21:17:16.726Z,0.80
2018-02-16T21:19:45.402Z,0.72
2018-02-16T21:22:14.059Z,0.66
2018-02-16T21:24:42.698Z,0.60
2018-02-16T21:27:11.321Z,0.56
2018-02-16T21:29:39.969Z,0.58
2018-02-16T21:32:08.619Z,0.60
2018-02-16T21:34:37.235Z,0.61
2018-02-16T21:37:05.850Z,0.59
2018-02-16T21:39:34.941Z,0.61
2018-02-16T21:42:03.564Z,0.66
2018-02-16T21:44:32.187Z,0.74
2018-02-16T21:47:00.821Z,0.87
2018-02-16T21:49:29.447Z,0.96
2018-02-16T21:51:59.327Z,1.04
2018-02-16T21:54:27.950Z,1.09
2018-02-16T21:56:58.079Z,1.18
2018-02-16T21:59:26.711Z,1.26
2018-02-16T22:01:55.815Z,1.28
2018-02-16T22:04:24.517Z,1.28
2018-02-16T22:06:53.136Z,1.29
2018-02-16T22:09:21.725Z,1.32
2018-02-16T22:11:50.396Z,1.35
2018-02-16T22:14:19.044Z,1.41
2018-02-16T22:16:47.644Z,1.50
2018-02-16T22:19:16.272Z,1.57
2018-02-16T22:21:44.925Z,1.68
2018-02-16T22:24:13.698Z,1.77
2018-02-16T22:26:42.329Z,1.87
2018-02-16T22:29:10.973Z,2.01
2018-02-16T22:31:39.596Z,2.08
2018-02-16T22:34:08.214Z,2.13
2018-02-16T22:36:36.922Z,2.14
2018-02-16T22:39:05.566Z,2.09
2018-02-16T22:41:34.247Z,1.98
2018-02-16T22:44:02.865Z,1.98
2018-02-16T22:46:31.460Z,2.01
2018-02-16T22:49:00.106Z,2.00
2018-02-16T22:51:29.606Z,2.04
2018-02-16T22:53:58.234Z,2.07
2018-02-16T22:56:27.458Z,2.13
2018-02-16T22:58:56.097Z,2.13
2018-02-16T23:01:24.748Z,2.14
2018-02-16T23:03:54.281Z,2.20
2018-02-16T23:06:22.917Z,2.24
2018-02-16T23:08:51.547Z,2.36
2018-02-16T23:11:20.171Z,2.35
2018-02-16T23:13:56.712Z,2.42
2018-02-16T23:16:25.562Z,2.53
2018-02-16T23:18:54.272Z,2.50
2018-02-16T23:21:22.910Z,2.48
2018-02-16T23:23:51.534Z,2.52
2018-02-16T23:26:20.165Z,2.60
2018-02-16T23:28:48.786Z,2.61
2018-02-16T23:31:17.458Z,2.64
2018-02-16T23:33:46.083Z,2.74
2018-02-16T23:36:14.701Z,2.80
2018-02-16T23:38:43.329Z,2.83
2018-02-16T23:41:11.946Z,2.84
2018-02-16T23:43:40.493Z,2.88
2018-02-16T23:46:09.118Z,2.76
2018-02-16T23:48:37.741Z,2.73
2018-02-16T23:51:06.372Z,2.79
2018-02-16T23:53:34.997Z,2.82
2018-02-16T23:56:08.923Z,2.79
2018-02-16T23:58:37.617Z,2.81
